Time;durP1;ratioP1;P1;durP2;ratioP2;P2;SDS_P1;SDS_P2;PMS_P1;PMS_P2;Temp;Humidity;BMP_temperature;BMP_pressure;BME280_temperature;BME280_humidity;BME280_pressure;Samples;Min_cycle;Max_cycle;Signal;HPM_P1;HPM_P2
2023/03/09 00:01:41;;;;;;;9.50;8.60;;;;;;;;;;5009040;28;20242;-89
2023/03/09 00:04:06;;;;;;;9.30;8.40;;;;;;;;;;5029976;28;20235;-87
2023/03/09 00:06:32;;;;;;;9.17;8.37;;;;;;;;;;5020996;28;20215;-87
2023/03/09 00:08:58;;;;;;;8.47;7.67;;;;;;;;;;4995488;28;20274;-88
2023/03/09 00:11:24;;;;;;;9.47;8.53;;;;;;;;;;4995289;28;20223;-86
2023/03/09 00:13:50;;;;;;;8.80;7.90;;;;;;;;;;5006782;28;20227;-87
2023/03/09 00:16:19;;;;;;;9.17;8.37;;;;;;;;;;5016404;28;20228;-86
2023/03/09 00:18:45;;;;;;;8.53;7.73;;;;;;;;;;5048782;28;20219;-88
2023/03/09 00:21:14;;;;;;;9.43;8.53;;;;;;;;;;5015016;28;20693;-85
2023/03/09 00:23:41;;;;;;;9.50;8.60;;;;;;;;;;5004988;28;20220;-88
2023/03/09 00:26:07;;;;;;;8.73;7.83;;;;;;;;;;4994693;28;20226;-88
2023/03/09 00:28:33;;;;;;;9.30;8.40;;;;;;;;;;5031055;28;20279;-87
2023/03/09 00:31:03;;;;;;;9.00;8.20;;;;;;;;;;4993600;28;20227;-89
2023/03/09 00:33:31;;;;;;;9.00;8.20;;;;;;;;;;5015309;28;20242;-88
2023/03/09 00:35:56;;;;;;;8.97;8.07;;;;;;;;;;5000775;28;20302;-86
2023/03/09 00:38:22;;;;;;;9.43;8.53;;;;;;;;;;5017213;28;20212;-88
2023/03/09 00:40:48;;;;;;;9.27;8.43;;;;;;;;;;4997842;28;20203;-91
2023/03/09 00:43:16;;;;;;;9.60;8.70;;;;;;;;;;5017598;28;20860;-88
2023/03/09 00:45:42;;;;;;;8.87;8.07;;;;;;;;;;5003759;28;20229;-89
2023/03/09 00:48:07;;;;;;;9.97;9.00;;;;;;;;;;5004802;28;20915;-86
2023/03/09 00:50:33;;;;;;;9.53;8.63;;;;;;;;;;5013395;28;20300;-87
2023/03/09 00:52:58;;;;;;;12.87;9.17;;;;;;;;;;5000309;28;20305;-89
2023/03/09 00:55:24;;;;;;;9.27;8.30;;;;;;;;;;5006197;28;20254;-88
2023/03/09 00:57:49;;;;;;;11.37;9.20;;;;;;;;;;5025755;28;20223;-87
2023/03/09 01:00:15;;;;;;;9.60;8.70;;;;;;;;;;5043386;28;20234;-87
2023/03/09 01:02:41;;;;;;;9.20;8.30;;;;;;;;;;4998347;28;20227;-87
2023/03/09 01:05:09;;;;;;;9.93;8.93;;;;;;;;;;5022224;28;20217;-87
2023/03/09 01:07:44;;;;;;;9.83;8.83;;;;;;;;;;5008762;28;20231;-87
2023/03/09 01:10:11;;;;;;;10.17;9.03;;;;;;;;;;4993041;28;20228;-87
2023/03/09 01:12:37;;;;;;;10.60;9.50;;;;;;;;;;5004493;28;20298;-89
2023/03/09 01:15:03;;;;;;;10.13;9.13;;;;;;;;;;5006495;28;20228;-91
2023/03/09 01:17:31;;;;;;;9.33;8.43;;;;;;;;;;5012776;28;20221;-87
2023/03/09 01:19:59;;;;;;;9.23;8.40;;;;;;;;;;5002745;28;20219;-88
2023/03/09 01:22:24;;;;;;;10.27;9.27;;;;;;;;;;5000600;28;20215;-88
2023/03/09 01:24:50;;;;;;;11.23;10.13;;;;;;;;;;5023557;28;20224;-88
2023/03/09 01:27:18;;;;;;;10.37;8.77;;;;;;;;;;4999236;28;20230;-86
2023/03/09 01:29:51;;;;;;;10.70;9.60;;;;;;;;;;5009339;28;20231;-86
2023/03/09 01:32:20;;;;;;;11.90;9.87;;;;;;;;;;5009689;28;20204;-89
2023/03/09 01:34:46;;;;;;;11.77;10.50;;;;;;;;;;5030134;28;20233;-89
2023/03/09 01:37:14;;;;;;;11.23;10.13;;;;;;;;;;5009577;28;20271;-88
2023/03/09 01:39:43;;;;;;;10.83;9.40;;;;;;;;;;5012032;28;20207;-88
2023/03/09 01:42:08;;;;;;;12.03;10.80;;;;;;;;;;5028753;28;20231;-87
2023/03/09 01:44:34;;;;;;;13.10;10.10;;;;;;;;;;5031872;28;20223;-89
2023/03/09 01:47:05;;;;;;;12.23;11.00;;;;;;;;;;5044210;28;20213;-90
2023/03/09 01:49:47;;;;;;;11.57;10.50;;;;;;;;;;5027018;28;20705;-86
2023/03/09 01:52:21;;;;;;;11.23;10.07;;;;;;;;;;4989677;28;20685;-85
2023/03/09 01:54:56;;;;;;;11.47;10.27;;;;;;;;;;5040570;28;20224;-84
2023/03/09 01:57:39;;;;;;;10.93;9.83;;;;;;;;;;5030072;28;20231;-85
2023/03/09 02:00:07;;;;;;;11.93;10.67;;;;;;;;;;5028470;28;20238;-90
2023/03/09 02:02:50;;;;;;;11.97;10.77;;;;;;;;;;5017875;28;20224;-85
2023/03/09 02:05:21;;;;;;;11.10;10.00;;;;;;;;;;5018772;28;20224;-88
2023/03/09 02:07:50;;;;;;;10.13;9.13;;;;;;;;;;4992291;28;20224;-86
2023/03/09 02:10:21;;;;;;;12.30;11.10;;;;;;;;;;4999035;28;20232;-86
2023/03/09 02:12:52;;;;;;;11.10;9.97;;;;;;;;;;5026166;28;20225;-87
2023/03/09 02:15:20;;;;;;;12.27;11.13;;;;;;;;;;5017392;28;20267;-86
2023/03/09 02:17:53;;;;;;;11.67;10.47;;;;;;;;;;5009658;28;20223;-87
2023/03/09 02:20:25;;;;;;;12.63;11.13;;;;;;;;;;5034659;28;20216;-86
2023/03/09 02:22:52;;;;;;;15.43;12.03;;;;;;;;;;5034724;28;20384;-87
2023/03/09 02:25:48;;;;;;;12.03;10.83;;;;;;;;;;4987270;28;20227;-87
2023/03/09 02:28:19;;;;;;;11.77;10.60;;;;;;;;;;5005459;28;20572;-86
2023/03/09 02:30:46;;;;;;;11.97;10.77;;;;;;;;;;5019852;28;20290;-87
2023/03/09 02:33:25;;;;;;;11.93;10.73;;;;;;;;;;4985981;28;20298;-85
2023/03/09 02:36:03;;;;;;;13.03;11.73;;;;;;;;;;5006499;28;20223;-88
2023/03/09 02:38:34;;;;;;;12.20;11.00;;;;;;;;;;5010571;28;20674;-87
2023/03/09 02:41:07;;;;;;;12.63;11.43;;;;;;;;;;5003598;28;20280;-88
2023/03/09 02:43:35;;;;;;;12.70;11.40;;;;;;;;;;4997491;28;20841;-88
2023/03/09 02:46:03;;;;;;;12.27;11.07;;;;;;;;;;5012611;28;20220;-85
2023/03/09 02:48:32;;;;;;;14.17;12.87;;;;;;;;;;5013983;28;20781;-87
2023/03/09 02:51:02;;;;;;;14.90;12.00;;;;;;;;;;4996251;28;20221;-87
2023/03/09 02:53:32;;;;;;;13.97;12.60;;;;;;;;;;5030458;28;20239;-86
2023/03/09 02:55:57;;;;;;;15.20;12.60;;;;;;;;;;4991417;28;20215;-87
2023/03/09 02:58:28;;;;;;;14.90;13.30;;;;;;;;;;4998557;28;20220;-88
2023/03/09 03:00:53;;;;;;;14.67;12.50;;;;;;;;;;4990558;28;20217;-87
2023/03/09 03:03:24;;;;;;;13.33;12.03;;;;;;;;;;5013339;28;20212;-87
2023/03/09 03:05:50;;;;;;;14.63;13.13;;;;;;;;;;5006714;28;20243;-85
2023/03/09 03:08:17;;;;;;;15.33;13.60;;;;;;;;;;5020003;28;20238;-88
2023/03/09 03:10:42;;;;;;;12.83;11.53;;;;;;;;;;5010152;28;20669;-86
2023/03/09 03:13:09;;;;;;;14.00;12.53;;;;;;;;;;5012029;28;20232;-87
2023/03/09 03:15:37;;;;;;;15.13;13.53;;;;;;;;;;4995047;28;20224;-85
2023/03/09 03:18:03;;;;;;;14.80;13.33;;;;;;;;;;5022477;28;20241;-88
2023/03/09 03:20:32;;;;;;;14.63;12.70;;;;;;;;;;4995807;28;20240;-84
2023/03/09 03:23:01;;;;;;;14.53;13.03;;;;;;;;;;4994725;28;20212;-87
2023/03/09 03:25:38;;;;;;;14.80;13.20;;;;;;;;;;5000210;28;20226;-87
2023/03/09 03:28:04;;;;;;;13.97;12.67;;;;;;;;;;5012111;28;20239;-86
2023/03/09 03:30:32;;;;;;;14.53;13.07;;;;;;;;;;5016565;28;20303;-85
2023/03/09 03:32:58;;;;;;;14.57;12.30;;;;;;;;;;5017703;28;20223;-87
2023/03/09 03:35:28;;;;;;;13.57;12.17;;;;;;;;;;5006644;28;20254;-88
2023/03/09 03:37:54;;;;;;;13.90;12.40;;;;;;;;;;5015160;28;20212;-84
2023/03/09 03:40:21;;;;;;;13.97;12.37;;;;;;;;;;5017269;28;20216;-87
2023/03/09 03:42:55;;;;;;;12.80;11.53;;;;;;;;;;5025997;28;20212;-87
2023/03/09 03:45:23;;;;;;;13.07;11.87;;;;;;;;;;5009132;28;20779;-89
2023/03/09 03:47:51;;;;;;;13.50;12.20;;;;;;;;;;5033091;28;20254;-87
2023/03/09 03:50:19;;;;;;;13.60;12.20;;;;;;;;;;5001232;28;20219;-87
2023/03/09 03:52:53;;;;;;;13.60;12.30;;;;;;;;;;5030120;28;20233;-87
2023/03/09 03:55:21;;;;;;;14.43;12.93;;;;;;;;;;5026526;28;20216;-87
2023/03/09 03:57:50;;;;;;;12.83;11.43;;;;;;;;;;5003498;28;20260;-88
2023/03/09 04:00:19;;;;;;;13.50;12.10;;;;;;;;;;5014888;28;20224;-88
2023/03/09 04:02:45;;;;;;;14.10;12.73;;;;;;;;;;4989818;28;20236;-85
2023/03/09 04:05:18;;;;;;;13.20;11.80;;;;;;;;;;5014220;28;20583;-88
2023/03/09 04:07:49;;;;;;;15.87;12.70;;;;;;;;;;5010610;28;20223;-87
2023/03/09 04:10:16;;;;;;;13.83;12.43;;;;;;;;;;5002587;28;20219;-87
2023/03/09 04:12:44;;;;;;;13.90;12.50;;;;;;;;;;5027780;28;20708;-88
2023/03/09 04:15:11;;;;;;;15.67;12.97;;;;;;;;;;5011223;28;20696;-87
2023/03/09 04:17:37;;;;;;;15.23;11.77;;;;;;;;;;5007295;28;20593;-86
2023/03/09 04:20:05;;;;;;;13.70;12.30;;;;;;;;;;5023558;28;20231;-85
2023/03/09 04:22:34;;;;;;;13.10;11.67;;;;;;;;;;5004490;28;20215;-86
2023/03/09 04:24:59;;;;;;;13.00;11.70;;;;;;;;;;5001299;28;20226;-84
2023/03/09 04:27:27;;;;;;;14.77;11.73;;;;;;;;;;5014636;28;20732;-87
2023/03/09 04:30:03;;;;;;;14.17;12.20;;;;;;;;;;5010794;28;20224;-89
2023/03/09 04:32:35;;;;;;;13.10;11.73;;;;;;;;;;5016783;28;22264;-85
2023/03/09 04:35:08;;;;;;;15.70;11.97;;;;;;;;;;5008432;28;20277;-86
2023/03/09 04:37:37;;;;;;;14.50;11.83;;;;;;;;;;5004473;28;20220;-87
2023/03/09 04:40:06;;;;;;;13.27;11.87;;;;;;;;;;5012373;28;20232;-86
2023/03/09 04:42:34;;;;;;;13.50;12.10;;;;;;;;;;5000753;28;20220;-88
2023/03/09 04:45:05;;;;;;;13.27;11.97;;;;;;;;;;5009313;28;20215;-83
2023/03/09 04:47:31;;;;;;;13.43;12.13;;;;;;;;;;5009671;28;20212;-83
2023/03/09 04:49:57;;;;;;;13.83;12.27;;;;;;;;;;5006705;28;20223;-83
2023/03/09 04:52:24;;;;;;;12.93;11.53;;;;;;;;;;5019364;28;20231;-82
2023/03/09 04:54:54;;;;;;;13.03;11.73;;;;;;;;;;5001954;28;20231;-82
2023/03/09 04:57:20;;;;;;;12.70;11.40;;;;;;;;;;5021906;28;20222;-83
2023/03/09 04:59:46;;;;;;;14.87;11.13;;;;;;;;;;5008524;28;20214;-82
2023/03/09 05:02:14;;;;;;;13.50;11.97;;;;;;;;;;4999889;28;20231;-81
2023/03/09 05:04:45;;;;;;;12.23;10.87;;;;;;;;;;5007292;28;20740;-83
2023/03/09 05:07:11;;;;;;;12.67;11.43;;;;;;;;;;4991347;28;20330;-83
2023/03/09 05:09:37;;;;;;;12.13;10.90;;;;;;;;;;5010710;28;20586;-82
2023/03/09 05:12:06;;;;;;;12.37;11.17;;;;;;;;;;4987467;28;20799;-82
2023/03/09 05:14:35;;;;;;;11.20;10.10;;;;;;;;;;5021425;28;20236;-82
2023/03/09 05:17:01;;;;;;;11.37;10.27;;;;;;;;;;5015049;28;20246;-81
2023/03/09 05:19:27;;;;;;;11.57;10.37;;;;;;;;;;5013191;28;20257;-82
2023/03/09 05:21:56;;;;;;;11.80;10.60;;;;;;;;;;5006325;28;20220;-82
2023/03/09 05:24:21;;;;;;;11.10;10.07;;;;;;;;;;5009664;28;20226;-82
2023/03/09 05:26:47;;;;;;;12.80;11.13;;;;;;;;;;5027507;28;20310;-82
2023/03/09 05:29:15;;;;;;;14.17;10.53;;;;;;;;;;5003431;28;20296;-82
2023/03/09 05:31:41;;;;;;;10.93;9.87;;;;;;;;;;5022412;28;20219;-82
2023/03/09 05:34:07;;;;;;;10.77;9.67;;;;;;;;;;5026468;28;20290;-81
2023/03/09 05:36:33;;;;;;;11.00;10.07;;;;;;;;;;5008425;28;20231;-82
2023/03/09 05:39:05;;;;;;;10.80;8.77;;;;;;;;;;5038905;28;20212;-82
2023/03/09 05:41:31;;;;;;;10.10;9.03;;;;;;;;;;5008114;28;20230;-82
2023/03/09 05:44:02;;;;;;;10.57;9.47;;;;;;;;;;4989413;28;20440;-83
2023/03/09 05:46:29;;;;;;;10.73;9.27;;;;;;;;;;5005431;28;20220;-81
2023/03/09 05:48:55;;;;;;;10.93;9.67;;;;;;;;;;5013362;28;20239;-83
2023/03/09 05:51:21;;;;;;;10.50;9.20;;;;;;;;;;5003883;28;20226;-83
2023/03/09 05:53:49;;;;;;;9.17;8.37;;;;;;;;;;5012218;28;20219;-82
2023/03/09 05:56:17;;;;;;;10.33;8.93;;;;;;;;;;5015580;28;20215;-82
2023/03/09 05:58:48;;;;;;;10.40;9.10;;;;;;;;;;5001972;28;20235;-82
2023/03/09 06:01:23;;;;;;;10.00;9.00;;;;;;;;;;5015548;28;20247;-82
2023/03/09 06:03:55;;;;;;;9.60;8.60;;;;;;;;;;4998036;28;20276;-82
2023/03/09 06:06:22;;;;;;;10.43;9.27;;;;;;;;;;5020282;28;20243;-82
2023/03/09 06:08:47;;;;;;;10.17;8.87;;;;;;;;;;5024480;28;20766;-83
2023/03/09 06:11:14;;;;;;;11.67;9.37;;;;;;;;;;5019605;28;20627;-82
2023/03/09 06:13:40;;;;;;;9.07;8.17;;;;;;;;;;4999851;28;20228;-82
2023/03/09 06:16:07;;;;;;;9.53;8.53;;;;;;;;;;5018906;28;20224;-82
2023/03/09 06:18:33;;;;;;;10.03;8.80;;;;;;;;;;5014182;28;20629;-82
2023/03/09 06:21:01;;;;;;;10.00;8.33;;;;;;;;;;4981995;28;20266;-82
2023/03/09 06:23:28;;;;;;;9.47;8.50;;;;;;;;;;5004406;28;20298;-82
2023/03/09 06:25:57;;;;;;;12.07;9.60;;;;;;;;;;4995810;28;20227;-82
2023/03/09 06:28:24;;;;;;;10.60;9.60;;;;;;;;;;5007407;28;20670;-82
2023/03/09 06:30:49;;;;;;;8.87;8.07;;;;;;;;;;4995907;28;20215;-82
2023/03/09 06:33:15;;;;;;;10.23;8.27;;;;;;;;;;5002116;28;20306;-83
2023/03/09 06:35:47;;;;;;;9.20;8.30;;;;;;;;;;4990753;28;20215;-82
2023/03/09 06:38:15;;;;;;;8.83;7.43;;;;;;;;;;5001340;28;20278;-83
2023/03/09 06:40:48;;;;;;;11.33;8.10;;;;;;;;;;4987440;28;20212;-81
2023/03/09 06:43:14;;;;;;;9.27;8.37;;;;;;;;;;5017160;28;20560;-81
2023/03/09 06:45:45;;;;;;;8.13;7.33;;;;;;;;;;5007854;28;20227;-82
2023/03/09 06:48:12;;;;;;;10.93;8.30;;;;;;;;;;5009168;28;20220;-81
2023/03/09 06:50:39;;;;;;;9.17;8.37;;;;;;;;;;5013090;28;20220;-81
2023/03/09 06:53:07;;;;;;;9.33;8.43;;;;;;;;;;4986248;28;20235;-81
2023/03/09 06:55:33;;;;;;;9.30;8.03;;;;;;;;;;5018165;28;20224;-82
2023/03/09 06:57:59;;;;;;;9.07;8.17;;;;;;;;;;5007871;28;20224;-83
2023/03/09 07:00:25;;;;;;;9.07;8.17;;;;;;;;;;5010304;28;20212;-82
2023/03/09 07:02:56;;;;;;;8.73;7.83;;;;;;;;;;5022157;28;20250;-83
2023/03/09 07:05:21;;;;;;;8.90;8.10;;;;;;;;;;5024396;28;20216;-81
2023/03/09 07:07:48;;;;;;;8.80;7.90;;;;;;;;;;5007785;28;20662;-82
2023/03/09 07:10:18;;;;;;;8.13;7.33;;;;;;;;;;5007275;28;20307;-82
2023/03/09 07:12:43;;;;;;;9.00;8.07;;;;;;;;;;5008057;28;20815;-83
2023/03/09 07:15:09;;;;;;;8.37;7.47;;;;;;;;;;5005307;28;20232;-82
2023/03/09 07:17:37;;;;;;;8.77;7.93;;;;;;;;;;5009367;28;20234;-83
2023/03/09 07:20:02;;;;;;;8.73;7.80;;;;;;;;;;5009015;28;20224;-81
2023/03/09 07:22:28;;;;;;;8.87;8.00;;;;;;;;;;5008911;28;20596;-83
2023/03/09 07:24:53;;;;;;;8.70;7.20;;;;;;;;;;5010248;28;20707;-84
2023/03/09 07:27:22;;;;;;;8.13;7.27;;;;;;;;;;5022442;28;20235;-83
2023/03/09 07:29:52;;;;;;;8.47;7.67;;;;;;;;;;5007715;28;20212;-82
2023/03/09 07:32:18;;;;;;;8.10;7.30;;;;;;;;;;5024900;28;20223;-82
2023/03/09 07:34:44;;;;;;;7.87;7.17;;;;;;;;;;5005065;28;20291;-83
2023/03/09 07:37:10;;;;;;;8.50;7.70;;;;;;;;;;5036862;28;20222;-82
2023/03/09 07:39:35;;;;;;;7.93;7.20;;;;;;;;;;5017406;28;20224;-82
2023/03/09 07:42:01;;;;;;;9.13;8.20;;;;;;;;;;5009530;28;20230;-82
2023/03/09 07:44:42;;;;;;;7.77;6.90;;;;;;;;;;5004836;28;20303;-82
2023/03/09 07:47:10;;;;;;;7.53;6.83;;;;;;;;;;5006117;28;20220;-82
2023/03/09 07:49:35;;;;;;;7.60;6.90;;;;;;;;;;5004628;28;20227;-82
2023/03/09 07:52:02;;;;;;;7.40;6.70;;;;;;;;;;5000778;28;20212;-82
2023/03/09 07:54:30;;;;;;;8.07;7.37;;;;;;;;;;5019703;28;20251;-82
2023/03/09 07:56:55;;;;;;;8.13;7.30;;;;;;;;;;5002937;28;20224;-82
2023/03/09 07:59:23;;;;;;;7.80;7.10;;;;;;;;;;5000827;28;20216;-82
2023/03/09 08:01:49;;;;;;;8.30;6.80;;;;;;;;;;5015624;28;20217;-82
2023/03/09 08:04:17;;;;;;;8.03;7.23;;;;;;;;;;4984798;28;20289;-81
2023/03/09 08:06:43;;;;;;;7.67;6.97;;;;;;;;;;5016058;28;20216;-82
2023/03/09 08:09:12;;;;;;;6.83;6.23;;;;;;;;;;5008212;28;20227;-81
2023/03/09 08:11:38;;;;;;;7.47;6.77;;;;;;;;;;5027907;28;20758;-81
2023/03/09 08:14:05;;;;;;;6.77;6.17;;;;;;;;;;4996777;28;20245;-81
2023/03/09 08:16:31;;;;;;;7.67;6.80;;;;;;;;;;5004902;28;20220;-81
2023/03/09 08:18:59;;;;;;;7.80;7.07;;;;;;;;;;5020064;28;20227;-82
2023/03/09 08:21:27;;;;;;;7.30;6.60;;;;;;;;;;5020335;28;20682;-81
2023/03/09 08:23:52;;;;;;;10.37;6.80;;;;;;;;;;5004716;28;20273;-81
2023/03/09 08:26:18;;;;;;;7.50;6.80;;;;;;;;;;5018161;28;20215;-82
2023/03/09 08:28:46;;;;;;;6.80;6.13;;;;;;;;;;5031340;28;20960;-81
2023/03/09 08:31:12;;;;;;;7.07;6.47;;;;;;;;;;5025512;28;20230;-81
2023/03/09 08:33:39;;;;;;;7.60;6.73;;;;;;;;;;5024346;28;20235;-81
2023/03/09 08:36:16;;;;;;;8.03;6.80;;;;;;;;;;5022985;28;20650;-81
2023/03/09 08:38:42;;;;;;;7.10;6.37;;;;;;;;;;5011892;28;20241;-83
2023/03/09 08:41:08;;;;;;;7.63;6.90;;;;;;;;;;5010576;28;20209;-81
2023/03/09 08:43:33;;;;;;;7.00;6.40;;;;;;;;;;5028434;28;20447;-80
2023/03/09 08:45:59;;;;;;;8.13;7.03;;;;;;;;;;5011169;28;20215;-82
2023/03/09 08:48:24;;;;;;;7.70;6.90;;;;;;;;;;5011981;28;20223;-80
2023/03/09 08:50:52;;;;;;;7.53;6.83;;;;;;;;;;5016367;28;20223;-81
2023/03/09 08:53:21;;;;;;;7.40;6.70;;;;;;;;;;5009815;28;20224;-81
2023/03/09 08:55:49;;;;;;;7.63;6.93;;;;;;;;;;5009535;28;20234;-80
2023/03/09 08:58:14;;;;;;;7.57;6.47;;;;;;;;;;5008653;28;20585;-82
2023/03/09 09:00:40;;;;;;;7.60;6.90;;;;;;;;;;5001545;28;20902;-82
2023/03/09 09:03:06;;;;;;;7.40;6.70;;;;;;;;;;5041167;28;20287;-82
2023/03/09 09:05:37;;;;;;;6.93;6.33;;;;;;;;;;5005411;28;20216;-82
2023/03/09 09:08:03;;;;;;;6.70;6.10;;;;;;;;;;5004877;28;20283;-81
2023/03/09 09:10:29;;;;;;;7.63;6.37;;;;;;;;;;5004136;28;20220;-83
2023/03/09 09:12:54;;;;;;;6.30;5.70;;;;;;;;;;5004640;28;20229;-82
2023/03/09 09:15:20;;;;;;;6.17;5.67;;;;;;;;;;5015829;28;20573;-82
2023/03/09 09:17:45;;;;;;;7.23;6.53;;;;;;;;;;5029093;28;20863;-81
2023/03/09 09:20:11;;;;;;;6.87;6.20;;;;;;;;;;5028816;28;20327;-82
2023/03/09 09:22:42;;;;;;;5.90;5.40;;;;;;;;;;5011338;28;20258;-81
2023/03/09 09:25:10;;;;;;;6.10;5.60;;;;;;;;;;5013772;28;20603;-82
2023/03/09 09:27:36;;;;;;;6.43;5.93;;;;;;;;;;5021142;28;20285;-80
2023/03/09 09:30:03;;;;;;;6.90;6.20;;;;;;;;;;5017627;28;20219;-82
2023/03/09 09:32:29;;;;;;;6.23;5.57;;;;;;;;;;5018254;28;20229;-81
2023/03/09 09:34:54;;;;;;;6.20;5.60;;;;;;;;;;5008352;28;20224;-82
2023/03/09 09:37:20;;;;;;;8.07;6.37;;;;;;;;;;4995338;28;20225;-81
2023/03/09 09:39:48;;;;;;;6.90;6.30;;;;;;;;;;5015925;28;20216;-81
2023/03/09 09:42:24;;;;;;;6.40;5.80;;;;;;;;;;5027006;28;20220;-82
2023/03/09 09:44:49;;;;;;;7.97;5.93;;;;;;;;;;5045094;28;20223;-83
2023/03/09 09:47:18;;;;;;;7.50;6.57;;;;;;;;;;5022152;28;20273;-83
2023/03/09 09:49:49;;;;;;;7.20;6.60;;;;;;;;;;5010825;28;20236;-83
2023/03/09 09:52:38;;;;;;;7.60;6.37;;;;;;;;;;5003850;28;20696;-81
2023/03/09 09:55:35;;;;;;;6.70;6.10;;;;;;;;;;5018048;28;20636;-82
2023/03/09 09:58:14;;;;;;;6.87;6.23;;;;;;;;;;5034005;28;20345;-82
2023/03/09 10:00:44;;;;;;;7.20;6.60;;;;;;;;;;5032424;28;20223;-84
2023/03/09 10:03:20;;;;;;;8.33;6.57;;;;;;;;;;4999987;28;20603;-82
2023/03/09 10:05:53;;;;;;;7.90;7.10;;;;;;;;;;5014467;28;20329;-83
2023/03/09 10:08:33;;;;;;;7.70;6.90;;;;;;;;;;5002202;28;20590;-83
2023/03/09 10:11:24;;;;;;;7.23;6.53;;;;;;;;;;5006495;28;20211;-83
2023/03/09 10:13:54;;;;;;;7.73;6.93;;;;;;;;;;5023446;28;20614;-83
2023/03/09 10:16:31;;;;;;;8.77;6.63;;;;;;;;;;5002230;28;20318;-83
2023/03/09 10:18:59;;;;;;;7.90;7.20;;;;;;;;;;5013103;28;20302;-83
2023/03/09 10:21:53;;;;;;;7.23;6.63;;;;;;;;;;4988094;28;20803;-83
2023/03/09 10:24:21;;;;;;;7.87;7.10;;;;;;;;;;5006633;28;20220;-83
2023/03/09 10:26:54;;;;;;;7.40;6.80;;;;;;;;;;5009800;28;20223;-84
2023/03/09 10:30:00;;;;;;;8.57;7.20;;;;;;;;;;5002249;28;20224;-83
2023/03/09 10:32:40;;;;;;;8.93;7.17;;;;;;;;;;5020530;28;20253;-83
2023/03/09 10:35:27;;;;;;;8.30;7.50;;;;;;;;;;5016758;28;20593;-83
2023/03/09 10:37:53;;;;;;;7.70;7.00;;;;;;;;;;5008982;28;20234;-83
2023/03/09 10:40:43;;;;;;;7.73;7.03;;;;;;;;;;5015861;28;20230;-84
2023/03/09 10:43:22;;;;;;;8.47;7.23;;;;;;;;;;5016047;28;20280;-82
2023/03/09 10:45:48;;;;;;;9.27;7.60;;;;;;;;;;4998150;28;20220;-84
2023/03/09 10:48:20;;;;;;;9.50;8.07;;;;;;;;;;5002296;28;20280;-83
2023/03/09 10:51:02;;;;;;;10.37;7.67;;;;;;;;;;5007935;28;20227;-84
2023/03/09 10:53:36;;;;;;;9.20;8.40;;;;;;;;;;5017239;28;20240;-83
2023/03/09 10:56:27;;;;;;;8.80;8.00;;;;;;;;;;5014629;28;20230;-83
2023/03/09 10:59:08;;;;;;;9.13;8.23;;;;;;;;;;5014238;28;20224;-83
2023/03/09 11:01:56;;;;;;;8.70;7.90;;;;;;;;;;5012107;28;20235;-82
2023/03/09 11:04:21;;;;;;;8.67;7.90;;;;;;;;;;5015771;28;20712;-83
2023/03/09 11:06:57;;;;;;;10.07;8.37;;;;;;;;;;5036098;28;20219;-83
2023/03/09 11:09:30;;;;;;;8.90;8.10;;;;;;;;;;4998291;28;20228;-82
2023/03/09 11:12:16;;;;;;;9.23;8.33;;;;;;;;;;5022020;28;20215;-83
2023/03/09 11:14:46;;;;;;;8.07;7.37;;;;;;;;;;4986537;28;20336;-85
2023/03/09 11:17:39;;;;;;;8.53;7.73;;;;;;;;;;4999714;28;20230;-83
2023/03/09 11:20:19;;;;;;;9.80;8.87;;;;;;;;;;5010659;28;20217;-83
2023/03/09 11:22:47;;;;;;;9.00;8.10;;;;;;;;;;5010792;28;20224;-83
2023/03/09 11:25:53;;;;;;;9.13;8.33;;;;;;;;;;5030023;28;20231;-83
2023/03/09 11:28:45;;;;;;;8.57;7.77;;;;;;;;;;5006365;28;20239;-83
2023/03/09 11:31:19;;;;;;;9.37;8.47;;;;;;;;;;5021214;28;20709;-82
2023/03/09 11:33:47;;;;;;;9.80;8.73;;;;;;;;;;4984885;28;20649;-83
2023/03/09 11:36:18;;;;;;;9.77;8.77;;;;;;;;;;5002343;28;20235;-83
2023/03/09 11:38:44;;;;;;;9.80;8.63;;;;;;;;;;5018890;28;20238;-83
2023/03/09 11:41:38;;;;;;;9.67;8.77;;;;;;;;;;5004586;28;20216;-82
2023/03/09 11:44:12;;;;;;;9.60;8.70;;;;;;;;;;5024244;28;20223;-82
2023/03/09 11:46:39;;;;;;;10.27;8.60;;;;;;;;;;5026703;28;20258;-84
2023/03/09 11:49:12;;;;;;;10.03;9.13;;;;;;;;;;5006811;28;20223;-83
2023/03/09 11:51:45;;;;;;;10.13;9.13;;;;;;;;;;5002907;28;20233;-84
2023/03/09 11:54:28;;;;;;;9.57;8.77;;;;;;;;;;5004403;28;20752;-84
2023/03/09 11:56:54;;;;;;;10.17;9.27;;;;;;;;;;5022789;28;20236;-82
2023/03/09 11:59:47;;;;;;;10.40;9.40;;;;;;;;;;5006518;28;20220;-81
2023/03/09 12:02:38;;;;;;;9.67;8.77;;;;;;;;;;5039850;28;20212;-81
2023/03/09 12:05:09;;;;;;;9.97;8.87;;;;;;;;;;5041830;28;20288;-80
2023/03/09 12:07:38;;;;;;;10.07;9.17;;;;;;;;;;4990228;28;20254;-81
2023/03/09 12:10:10;;;;;;;9.07;8.17;;;;;;;;;;5020090;28;20208;-82
2023/03/09 12:12:42;;;;;;;9.70;8.80;;;;;;;;;;5017607;28;20249;-81
2023/03/09 12:15:19;;;;;;;9.80;8.90;;;;;;;;;;5033598;28;20251;-81
2023/03/09 12:17:53;;;;;;;10.10;9.23;;;;;;;;;;5051429;28;20226;-79
2023/03/09 12:20:32;;;;;;;9.13;8.33;;;;;;;;;;4995420;28;20317;-82
2023/03/09 12:22:58;;;;;;;10.60;9.53;;;;;;;;;;5010915;28;20217;-81
2023/03/09 12:25:26;;;;;;;10.37;9.37;;;;;;;;;;5021595;28;20661;-82
2023/03/09 12:27:59;;;;;;;9.53;8.63;;;;;;;;;;5003480;28;20226;-82
2023/03/09 12:30:30;;;;;;;9.97;8.97;;;;;;;;;;5010893;28;20219;-80
2023/03/09 12:33:00;;;;;;;9.67;8.80;;;;;;;;;;5037819;28;20224;-82
2023/03/09 12:35:26;;;;;;;9.77;8.77;;;;;;;;;;5004565;28;20231;-81
2023/03/09 12:38:00;;;;;;;9.80;8.93;;;;;;;;;;5036776;28;20327;-81
2023/03/09 12:40:26;;;;;;;10.10;8.83;;;;;;;;;;5036757;28;20255;-82
2023/03/09 12:42:53;;;;;;;10.03;9.17;;;;;;;;;;5019640;28;20248;-81
2023/03/09 12:45:18;;;;;;;10.03;9.10;;;;;;;;;;5036200;28;20262;-81
2023/03/09 12:48:18;;;;;;;10.90;8.83;;;;;;;;;;5040895;28;20716;-81
2023/03/09 12:50:49;;;;;;;9.80;8.73;;;;;;;;;;5035304;28;20234;-79
2023/03/09 12:53:27;;;;;;;9.63;8.73;;;;;;;;;;5042510;28;20227;-79
2023/03/09 12:55:54;;;;;;;9.90;8.97;;;;;;;;;;5024952;28;20227;-80
2023/03/09 12:58:22;;;;;;;9.43;8.43;;;;;;;;;;5017414;28;20231;-79
2023/03/09 13:00:51;;;;;;;9.60;8.73;;;;;;;;;;5050350;28;20326;-79
2023/03/09 13:03:38;;;;;;;9.20;8.37;;;;;;;;;;5013629;28;20231;-81
2023/03/09 13:06:44;;;;;;;9.20;8.40;;;;;;;;;;5016294;28;20232;-80
2023/03/09 13:09:13;;;;;;;9.83;8.90;;;;;;;;;;4987933;28;20224;-80
2023/03/09 13:11:57;;;;;;;8.90;8.10;;;;;;;;;;4974361;28;20228;-80
2023/03/09 13:14:25;;;;;;;8.90;8.10;;;;;;;;;;5015656;28;20474;-81
2023/03/09 13:16:58;;;;;;;9.63;8.70;;;;;;;;;;5056765;28;20324;-80
2023/03/09 13:19:23;;;;;;;9.70;8.73;;;;;;;;;;5018180;28;20235;-81
2023/03/09 13:21:59;;;;;;;9.93;9.00;;;;;;;;;;5040458;28;20227;-79
2023/03/09 13:24:40;;;;;;;9.63;8.77;;;;;;;;;;5035899;28;20230;-80
2023/03/09 13:27:19;;;;;;;11.47;9.27;;;;;;;;;;5038270;28;20223;-81
2023/03/09 13:29:54;;;;;;;10.77;9.70;;;;;;;;;;5030119;28;20231;-79
2023/03/09 13:32:46;;;;;;;10.70;9.60;;;;;;;;;;5035512;28;20282;-81
2023/03/09 13:35:24;;;;;;;9.87;8.77;;;;;;;;;;5052599;28;20231;-81
2023/03/09 13:37:51;;;;;;;10.37;9.20;;;;;;;;;;5019695;28;20216;-81
2023/03/09 13:40:19;;;;;;;10.57;9.50;;;;;;;;;;5008751;28;20219;-81
2023/03/09 13:42:44;;;;;;;10.57;9.47;;;;;;;;;;5020493;28;20311;-79
2023/03/09 13:45:21;;;;;;;10.80;9.80;;;;;;;;;;5008640;28;20581;-79
2023/03/09 13:47:55;;;;;;;10.67;9.60;;;;;;;;;;5016448;28;20227;-81
2023/03/09 13:50:21;;;;;;;11.60;9.40;;;;;;;;;;5028361;28;20220;-79
2023/03/09 13:53:26;;;;;;;10.13;9.23;;;;;;;;;;5045080;28;20223;-82
2023/03/09 13:55:58;;;;;;;9.93;9.03;;;;;;;;;;5044327;28;20282;-83
2023/03/09 13:58:27;;;;;;;10.33;9.40;;;;;;;;;;5028700;28;20243;-80
2023/03/09 14:00:56;;;;;;;10.13;9.27;;;;;;;;;;5011648;28;20315;-80
2023/03/09 14:03:26;;;;;;;11.93;9.00;;;;;;;;;;5030069;28;20322;-81
2023/03/09 14:06:06;;;;;;;10.73;9.77;;;;;;;;;;5027757;28;20223;-81
2023/03/09 14:08:57;;;;;;;9.70;8.80;;;;;;;;;;5024594;28;20220;-80
2023/03/09 14:11:26;;;;;;;9.47;8.67;;;;;;;;;;5004690;28;20875;-81
2023/03/09 14:13:59;;;;;;;10.10;9.17;;;;;;;;;;5002769;28;20766;-82
2023/03/09 14:16:27;;;;;;;9.60;8.73;;;;;;;;;;5006605;28;20232;-77
2023/03/09 14:18:54;;;;;;;9.73;8.80;;;;;;;;;;5011524;28;20585;-79
2023/03/09 14:21:28;;;;;;;9.40;8.50;;;;;;;;;;4995541;28;20216;-82
2023/03/09 14:24:14;;;;;;;9.53;8.63;;;;;;;;;;4998972;28;20216;-80
2023/03/09 14:26:39;;;;;;;9.50;8.60;;;;;;;;;;5029688;28;20259;-79
2023/03/09 14:29:16;;;;;;;9.60;8.80;;;;;;;;;;5002279;28;20216;-80
2023/03/09 14:31:42;;;;;;;9.80;8.90;;;;;;;;;;5019435;28;20231;-80
2023/03/09 14:34:19;;;;;;;9.67;8.80;;;;;;;;;;5034463;28;20231;-80
2023/03/09 14:36:55;;;;;;;9.77;8.87;;;;;;;;;;5035572;28;20234;-80
2023/03/09 14:39:31;;;;;;;9.93;9.03;;;;;;;;;;4999542;28;20219;-80
2023/03/09 14:42:06;;;;;;;10.20;9.30;;;;;;;;;;5006344;28;20222;-79
2023/03/09 14:44:41;;;;;;;10.13;9.23;;;;;;;;;;5015414;28;20777;-80
2023/03/09 14:47:15;;;;;;;9.63;8.83;;;;;;;;;;4999947;28;20604;-80
2023/03/09 14:49:51;;;;;;;10.17;9.27;;;;;;;;;;5016515;28;20234;-80
2023/03/09 14:52:19;;;;;;;11.30;10.17;;;;;;;;;;4989346;28;20302;-81
2023/03/09 14:54:47;;;;;;;11.07;9.97;;;;;;;;;;5005218;28;20232;-81